Home > Products > Valid Products > MTR

000
SAUS42 KCHS 251157
MTRNBC
METAR KNBC 251156Z AUTO 00000KT 10SM CLR 20/16 A2994 RMK AO2 SLP140
T02000161 10200 20189 52009





000
SAUS42 KCHS 251057
MTRNBC
METAR KNBC 251056Z AUTO 00000KT 10SM CLR 19/15 A2993 RMK AO2 SLP135
T01890150





000
SAUS42 KCHS 250957
MTRNBC
METAR KNBC 250956Z AUTO 09004KT 10SM SCT110 19/15 A2993 RMK AO2
SLP135 T01890150





000
SAUS42 KCHS 250857
MTRNBC
METAR KNBC 250856Z AUTO 10004KT 10SM OVC120 19/14 A2992 RMK AO2
SLP130 T01940144 56019





000
SAUS42 KCHS 250758
MTRNBC
METAR KNBC 250756Z AUTO 16003KT 10SM CLR 20/14 A2992 RMK AO2 SLP133
T02000144





000
SAUS42 KCHS 250758
MTRNBC
METAR KNBC 250756Z AUTO 16003KT 10SM CLR 20/14 A2992 RMK AO2 SLP133
T02000144





000
SAUS42 KCHS 250657
MTRNBC
METAR KNBC 250656Z AUTO 00000KT 10SM CLR 19/12 A2995 RMK AO2 SLP140
T01940117





000
SAUS42 KCHS 250657
MTRNBC
METAR KNBC 250656Z AUTO 00000KT 10SM CLR 19/12 A2995 RMK AO2 SLP140
T01940117





000
SAUS42 KCHS 250557
MTRNBC
METAR KNBC 250556Z AUTO 18004KT 10SM CLR 19/12 A2997 RMK AO2 SLP149
T01890117 10189 20172 58014





000
SAUS42 KCHS 250557
MTRNBC
METAR KNBC 250556Z AUTO 18004KT 10SM CLR 19/12 A2997 RMK AO2 SLP149
T01890117 10189 20172 58014





000
SAUS42 KCHS 250457
MTRNBC
METAR KNBC 250456Z AUTO 00000KT 10SM CLR 18/12 A2999 RMK AO2 SLP156
T01830117 402330139





000
SAUS42 KCHS 250357
MTRNBC
METAR KNBC 250356Z AUTO 00000KT 10SM CLR 18/11 A3000 RMK AO2 SLP157
T01830106





000
SAUS42 KCHS 250257
MTRNBC
METAR KNBC 250256Z AUTO 18003KT 10SM CLR 18/11 A3001 RMK AO2 SLP163
T01780106 57003





000
SAUS42 KCHS 250157
MTRNBC
METAR KNBC 250156Z AUTO 16003KT 10SM CLR 17/09 A3001 RMK AO2 SLP164
T01720094 $





000
SAUS42 KCHS 250157
MTRNBC
METAR KNBC 250156Z AUTO 16003KT 10SM CLR 17/09 A3001 RMK AO2 SLP164
T01720094 $





000
SAUS42 KCHS 250057
MTRNBC
METAR KNBC 250056Z AUTO 18003KT 10SM CLR 17/10 A3002 RMK AO2 SLP166
T01720100 $





000
SAUS42 KCHS 250057
MTRNBC
METAR KNBC 250056Z AUTO 18003KT 10SM CLR 17/10 A3002 RMK AO2 SLP166
T01720100 $





000
SAUS42 KCHS 242357
MTRNBC
METAR KNBC 242356Z AUTO 17004KT 10SM CLR 18/09 A3002 RMK AO2 SLP166
T01780089 10233 20178 50005 $





000
SAUS42 KCHS 242357
MTRNBC
METAR KNBC 242356Z AUTO 17004KT 10SM CLR 18/09 A3002 RMK AO2 SLP166
T01780089 10233 20178 50005 $





000
SAUS42 KCHS 242258
MTRNBC
METAR KNBC 242256Z AUTO 18004KT 10SM CLR 19/08 A3003 RMK AO2 SLP169
T01940083 $





000
SAUS42 KCHS 242258
MTRNBC
METAR KNBC 242256Z AUTO 18004KT 10SM CLR 19/08 A3003 RMK AO2 SLP169
T01940083 $





000
SAUS42 KCHS 242158
MTRNBC
METAR KNBC 242156Z 14007KT 10SM FEW120 FEW250 21/09 A3001 RMK AO2
SLP163 T02110089 $





000
SAUS42 KCHS 242057
MTRNBC
METAR KNBC 242056Z 15005KT 10SM CLR 21/08 A3001 RMK AO2 SLP162
T02110083 56017 $





000
SAUS42 KCHS 241957
MTRNBC
METAR KNBC 241956Z 00000KT 10SM CLR 23/03 A3002 RMK AO2 SLP166
T02280028 $





000
SAUS42 KCHS 241857
MTRNBC
METAR KNBC 241856Z 07003KT 10SM CLR 22/02 A3004 RMK AO2 SLP172
T02220017 $





000
SAUS42 KCHS 241758
MTRNBC
METAR KNBC 241756Z 00000KT 10SM CLR 21/M01 A3006 RMK AO2 SLP179
T02111006 10217 20150 56012 $





000
SAUS42 KCHS 241758
MTRNBC
METAR KNBC 241756Z 00000KT 10SM CLR 21/M01 A3006 RMK AO2 SLP179
T02111006 10217 20150 56012 $





000
SAUS42 KCHS 241657
MTRNBC
METAR KNBC 241656Z VRB04KT 10SM FEW030 21/01 A3006 RMK AO2 SLP180
T02110011 $





000
SAUS42 KCHS 241557
MTRNBC
METAR KNBC 241556Z VRB06KT 10SM CLR 20/01 A3008 RMK AO2 SLP187
T02000006 $





000
SAUS42 KCHS 241557
MTRNBC
METAR KNBC 241556Z VRB06KT 10SM CLR 20/01 A3008 RMK AO2 SLP187
T02000006 $





000
SAUS42 KCHS 241458
MTRNBC
METAR KNBC 241456Z 03007KT 360V070 10SM CLR 19/00 A3009 RMK AO2
SLP191 T01890000 51016 $





000
SAUS42 KCHS 241458
MTRNBC
METAR KNBC 241456Z 03007KT 360V070 10SM CLR 19/00 A3009 RMK AO2
SLP191 T01890000 51016 $





000
SAUS42 KCHS 241357
MTRNBC
METAR KNBC 241356Z 03013KT 10SM CLR 17/M02 A3009 RMK AO2 SLP189
T01721017 $





000
SAUS42 KCHS 241357
MTRNBC
METAR KNBC 241356Z 03013KT 10SM CLR 17/M02 A3009 RMK AO2 SLP189
T01721017 $





000
SAUS42 KCHS 241257
MTRNBC
METAR KNBC 241256Z 06010G18KT 10SM CLR 16/M02 A3008 RMK AO2 SLP185
T01611017 $





000
SAUS42 KCHS 241257
MTRNBC
METAR KNBC 241256Z 06010G18KT 10SM CLR 16/M02 A3008 RMK AO2 SLP185
T01611017 $





000
SAUS42 KCHS 241157
MTRNBC
METAR KNBC 241156Z 04007KT 10SM CLR 15/03 A3005 RMK AO2 SLP175
T01500028 10194 20139 52028 $





000
SAUS42 KCHS 241157
MTRNBC
METAR KNBC 241156Z 04007KT 10SM CLR 15/03 A3005 RMK AO2 SLP175
T01500028 10194 20139 52028 $





000
SAUS42 KCHS 241057
MTRNBC
METAR KNBC 241056Z 02009KT 10SM FEW100 14/04 A3002 RMK AO2 SLP166
T01390039 $





000
SAUS42 KCHS 241057
MTRNBC
METAR KNBC 241056Z 02009KT 10SM FEW100 14/04 A3002 RMK AO2 SLP166
T01390039 $





000
SAUS42 KCHS 241043
MTRNBC
SPECI KNBC 241042Z 02010KT 10SM FEW100 14/04 A3001 RMK AO2 FIRST
T01440044 $





000
SAUS42 KCHS 241043
MTRNBC
SPECI KNBC 241042Z 02010KT 10SM FEW100 14/04 A3001 RMK AO2 FIRST
T01440044 $





000
SAUS42 KCHS 240957
MTRNBC
METAR KNBC 240956Z AUTO 36008KT 10SM CLR 14/07 A2999 RMK AO2 SLP156
T01440067 $





000
SAUS42 KCHS 240857
MTRNBC
METAR KNBC 240856Z AUTO 34009KT 10SM CLR 16/06 A2996 RMK AO2 SLP147
T01610061 53011 $





000
SAUS42 KCHS 240857
MTRNBC
METAR KNBC 240856Z AUTO 34009KT 10SM CLR 16/06 A2996 RMK AO2 SLP147
T01610061 53011 $





000
SAUS42 KCHS 240757
MTRNBC
METAR KNBC 240756Z AUTO 34009KT 10SM CLR 17/06 A2995 RMK AO2 SLP142
T01720061 $





000
SAUS42 KCHS 240657
MTRNBC
METAR KNBC 240656Z AUTO 32010KT 10SM CLR 18/09 A2994 RMK AO2 SLP138
T01830089 $





000
SAUS42 KCHS 240657
MTRNBC
METAR KNBC 240656Z AUTO 32010KT 10SM CLR 18/09 A2994 RMK AO2 SLP138
T01830089 $





000
SAUS42 KCHS 240557
MTRNBC
METAR KNBC 240556Z AUTO 31010KT 10SM CLR 19/11 A2993 RMK AO2 SLP136
T01940106 10244 20194 53007 $





000
SAUS42 KCHS 240557
MTRNBC
METAR KNBC 240556Z AUTO 31010KT 10SM CLR 19/11 A2993 RMK AO2 SLP136
T01940106 10244 20194 53007 $





000
SAUS42 KCHS 240457
MTRNBC
METAR KNBC 240456Z AUTO 29008KT 10SM CLR 21/12 A2993 RMK AO2 SLP134
T02060117 402890156 $





000
SAUS42 KCHS 240457
MTRNBC
METAR KNBC 240456Z AUTO 29008KT 10SM CLR 21/12 A2993 RMK AO2 SLP134
T02060117 402890156 $





000
SAUS42 KCHS 240357
MTRNBC
METAR KNBC 240356Z AUTO 28008KT 10SM CLR 21/12 A2991 RMK AO2 SLP129
T02110122 $





000
SAUS42 KCHS 240357
MTRNBC
METAR KNBC 240356Z AUTO 28008KT 10SM CLR 21/12 A2991 RMK AO2 SLP129
T02110122 $





000
SAUS42 KCHS 240257
MTRNBC
METAR KNBC 240256Z AUTO 28005KT 10SM CLR 22/13 A2991 RMK AO2 SLP128
T02170128 51012 $





000
SAUS42 KCHS 240257
MTRNBC
METAR KNBC 240256Z AUTO 28005KT 10SM CLR 22/13 A2991 RMK AO2 SLP128
T02170128 51012 $





000
SAUS42 KCHS 240157
MTRNBC
METAR KNBC 240156Z 28004KT 10SM SCT120 BKN250 22/14 A2990 RMK AO2
SLP126 T02220144 $





000
SAUS42 KCHS 240058
MTRNBC
METAR KNBC 240056Z 30008KT 10SM SCT120 BKN250 23/13 A2989 RMK AO2
SLP123 T02330133 $





000
SAUS42 KCHS 232358
MTRNBC
METAR KNBC 232356Z 26005KT 10SM SCT120 BKN250 24/14 A2988 RMK AO2
SLP117 T02440139 10289 20244 50000 $





000
SAUS42 KCHS 232358
MTRNBC
METAR KNBC 232356Z 26005KT 10SM SCT120 BKN250 24/14 A2988 RMK AO2
SLP117 T02440139 10289 20244 50000 $





000
SAUS42 KCHS 232258
MTRNBC
METAR KNBC 232256Z 28006KT 10SM SCT120 BKN250 26/13 A2987 RMK AO2
SLP116 T02610133 $





000
SAUS42 KCHS 232157
MTRNBC
METAR KNBC 232156Z 29007KT 10SM SCT070 SCT250 28/13 A2988 RMK AO2
SLP120 T02780133 $





000
SAUS42 KCHS 232058
MTRNBC
METAR KNBC 232056Z 29011KT 10SM SCT070 SCT250 27/13 A2988 RMK AO2
SLP117 T02720128 55014 $





000
SAUS42 KCHS 232058
MTRNBC
METAR KNBC 232056Z 29011KT 10SM SCT070 SCT250 27/13 A2988 RMK AO2
SLP117 T02720128 55014 $





000
SAUS42 KCHS 231957
MTRNBC
METAR KNBC 231956Z AUTO 30010G16KT 10SM FEW060 FEW075 28/13 A2987
RMK AO2 SLP115 T02830133 $





000
SAUS42 KCHS 231858
MTRNBC
METAR KNBC 231856Z 29011KT 10SM FEW065 SCT250 28/13 A2989 RMK AO2
SLP123 T02780133 $





000
SAUS42 KCHS 231757
MTRNBC
METAR KNBC 231756Z 30012G20KT 10SM FEW060 28/13 A2992 RMK AO2 SLP131
T02830133 10283 20178 56015 $





000
SAUS42 KCHS 231658
MTRNBC
METAR KNBC 231656Z 29011KT 10SM FEW050 FEW150 SCT250 27/13 A2993 RMK
AO2 SLP135 T02720128 $





000
SAUS42 KCHS 231658
MTRNBC
METAR KNBC 231656Z 29011KT 10SM FEW050 FEW150 SCT250 27/13 A2993 RMK
AO2 SLP135 T02720128 $





000
SAUS42 KCHS 231557
MTRNBC
METAR KNBC 231556Z 30010KT 10SM FEW150 FEW250 26/13 A2995 RMK AO2
SLP140 T02560128 $





000
SAUS42 KCHS 231457
MTRNBC
METAR KNBC 231456Z 29010KT 10SM FEW150 25/13 A2996 RMK AO2 SLP146
T02500128 53004 $





000
SAUS42 KCHS 231357
MTRNBC
METAR KNBC 231356Z 32008KT 10SM CLR 23/12 A2995 RMK AO2 SLP143
T02280117 $





000
SAUS42 KCHS 231257
MTRNBC
METAR KNBC 231256Z 30006KT 10SM FEW150 21/13 A2995 RMK AO2 SLP143
T02110128 $





000
SAUS42 KCHS 231257
MTRNBC
METAR KNBC 231256Z 30006KT 10SM FEW150 21/13 A2995 RMK AO2 SLP143
T02110128 $





000
SAUS42 KCHS 231157
MTRNBC
METAR KNBC 231156Z 26007KT 10SM FEW050 FEW150 18/13 A2995 RMK AO2
SLP141 T01780128 10189 20156 53017 $





000
SAUS42 KCHS 231157
MTRNBC
METAR KNBC 231156Z 26007KT 10SM FEW050 FEW150 18/13 A2995 RMK AO2
SLP141 T01780128 10189 20156 53017 $





000
SAUS42 KCHS 231057
MTRNBC
METAR KNBC 231056Z 24006KT 10SM FEW050 FEW150 16/13 A2993 RMK AO2
SLP134 FIRST T01610128 $





000
SAUS42 KCHS 231057
MTRNBC
METAR KNBC 231056Z 24006KT 10SM FEW050 FEW150 16/13 A2993 RMK AO2
SLP134 FIRST T01610128 $





000
SAUS42 KCHS 231033
MTRNBC
SPECI KNBC 231032Z 25006KT 10SM FEW150 16/13 A2992 RMK AO2 FIRST
T01610128 $





000
SAUS42 KCHS 230957
MTRNBC
METAR KNBC 230956Z AUTO 24007KT 9SM CLR 17/13 A2991 RMK AO2 SLP128
T01720128 $





000
SAUS42 KCHS 230857
MTRNBC
METAR KNBC 230856Z AUTO 28006KT 10SM CLR 18/13 A2990 RMK AO2 SLP124
T01780128 56005 $





000
SAUS42 KCHS 230857
MTRNBC
METAR KNBC 230856Z AUTO 28006KT 10SM CLR 18/13 A2990 RMK AO2 SLP124
T01780128 56005 $





000
SAUS42 KCHS 230757
MTRNBC
METAR KNBC 230756Z AUTO 24008KT 6SM CLR 18/13 A2990 RMK AO2 SLP125
T01780133 $





000
SAUS42 KCHS 230736
MTRNBC
SPECI KNBC 230735Z AUTO 23009KT 3SM CLR 18/14 A2990 RMK AO2
T01780139 $





000
SAUS42 KCHS 230736
MTRNBC
SPECI KNBC 230735Z AUTO 23009KT 3SM CLR 18/14 A2990 RMK AO2
T01780139 $





000
SAUS42 KCHS 230710
MTRNBC
SPECI KNBC 230709Z AUTO 23009KT 3/4SM CLR 18/14 A2990 RMK AO2
T01830144 $





000
SAUS42 KCHS 230710
MTRNBC
SPECI KNBC 230709Z AUTO 23009KT 3/4SM CLR 18/14 A2990 RMK AO2
T01830144 $





000
SAUS42 KCHS 230657
MTRNBC
METAR KNBC 230656Z AUTO 23008KT 1/2SM CLR 18/14 A2990 RMK AO2 SLP124
T01780144 $





000
SAUS42 KCHS 230657
MTRNBC
METAR KNBC 230656Z AUTO 23008KT 1/2SM CLR 18/14 A2990 RMK AO2 SLP124
T01780144 $





000
SAUS42 KCHS 230628
MTRNBC
SPECI KNBC 230627Z AUTO 23007KT 1/2SM CLR 18/14 A2990 RMK AO2
T01780144 $





000
SAUS42 KCHS 230609
MTRNBC
SPECI KNBC 230608Z AUTO 21005KT 1SM CLR 18/16 A2990 RMK AO2
T01830156 $





000
SAUS42 KCHS 230609
MTRNBC
SPECI KNBC 230608Z AUTO 21005KT 1SM CLR 18/16 A2990 RMK AO2
T01830156 $





000
SAUS42 KCHS 230557
MTRNBC
METAR KNBC 230556Z AUTO 22006KT 1 1/4SM CLR 18/16 A2991 RMK AO2
SLP129 T01830156 10211 20183 57004 $





000
SAUS42 KCHS 230557
MTRNBC
METAR KNBC 230556Z AUTO 22006KT 1 1/4SM CLR 18/16 A2991 RMK AO2
SLP129 T01830156 10211 20183 57004 $





000
SAUS42 KCHS 230555
MTRNBC
SPECI KNBC 230554Z AUTO 21006KT 1 1/4SM CLR 18/16 A2991 RMK AO2 $





000
SAUS42 KCHS 230555
MTRNBC
SPECI KNBC 230554Z AUTO 21006KT 1 1/4SM CLR 18/16 A2991 RMK AO2 $





000
SAUS42 KCHS 230530
MTRNBC
SPECI KNBC 230529Z AUTO 22006KT 3/4SM CLR 18/16 A2992 RMK AO2
T01830156 $





000
SAUS42 KCHS 230457
MTRNBC
METAR KNBC 230456Z AUTO 22007KT 1/2SM CLR 19/16 A2992 RMK AO2 SLP131
T01890156 402720128 $





000
SAUS42 KCHS 230454
MTRNBC
SPECI KNBC 230453Z AUTO 22007KT 3/4SM CLR 19/16 A2992 RMK AO2 $





000
SAUS42 KCHS 230441
MTRNBC
SPECI KNBC 230440Z AUTO 22007KT 1/2SM CLR 19/16 A2992 RMK AO2
T01890156 $





000
SAUS42 KCHS 230429
MTRNBC
SPECI KNBC 230427Z AUTO 22006KT 3/4SM CLR 19/16 A2992 RMK AO2
T01940156 $





000
SAUS42 KCHS 230429
MTRNBC
SPECI KNBC 230427Z AUTO 22006KT 3/4SM CLR 19/16 A2992 RMK AO2
T01940156 $





000
SAUS42 KCHS 230408
MTRNBC
SPECI KNBC 230406Z AUTO 21007KT 1 1/2SM CLR 19/16 A2992 RMK AO2 VIS
3/4V5 T01940156 $





000
SAUS42 KCHS 230408
MTRNBC
SPECI KNBC 230406Z AUTO 21007KT 1 1/2SM CLR 19/16 A2992 RMK AO2 VIS
3/4V5 T01940156 $





000
SAUS42 KCHS 230357
MTRNBC
METAR KNBC 230356Z AUTO 20006KT 2SM CLR 19/16 A2992 RMK AO2 VIS 1
1/2V4 SLP132 T01940156 $





000
SAUS42 KCHS 230357
MTRNBC
METAR KNBC 230356Z AUTO 20006KT 2SM CLR 19/16 A2992 RMK AO2 VIS 1
1/2V4 SLP132 T01940156 $





000
SAUS42 KCHS 230305
MTRNBC
SPECI KNBC 230303Z AUTO 20007KT 120V230 2SM CLR 19/16 A2993 RMK AO2
VIS 1 1/2V2 1/2 T01940156 $





000
SAUS42 KCHS 230305
MTRNBC
SPECI KNBC 230303Z AUTO 20007KT 120V230 2SM CLR 19/16 A2993 RMK AO2
VIS 1 1/2V2 1/2 T01940156 $





000
SAUS42 KCHS 230257
MTRNBC
METAR KNBC 230256Z 20006KT 10SM CLR 19/16 A2993 RMK AO2 SLP134
T01940156 51012 $





000
SAUS42 KCHS 230157
MTRNBC
METAR KNBC 230156Z VRB06KT 10SM CLR 19/14 A2992 RMK AO2 SLP133
T01940144 $





000
SAUS42 KCHS 230157
MTRNBC
METAR KNBC 230156Z VRB06KT 10SM CLR 19/14 A2992 RMK AO2 SLP133
T01940144 $





000
SAUS42 KCHS 230057
MTRNBC
METAR KNBC 230056Z 19007KT 10SM CLR 20/14 A2990 RMK AO2 SLP127
T02000144 $





000
SAUS42 KCHS 230057
MTRNBC
METAR KNBC 230056Z 19007KT 10SM CLR 20/14 A2990 RMK AO2 SLP127
T02000144 $





000
SAUS42 KCHS 222357
MTRNBC
METAR KNBC 222356Z 18007KT 10SM CLR 21/14 A2989 RMK AO2 SLP122
T02110139 10272 20211 55004 $





000
SAUS42 KCHS 222357
MTRNBC
METAR KNBC 222356Z 18007KT 10SM CLR 21/14 A2989 RMK AO2 SLP122
T02110139 10272 20211 55004 $





000
SAUS42 KCHS 222257
MTRNBC
METAR KNBC 222256Z 17006KT 10SM CLR 23/13 A2989 RMK AO2 SLP121
T02330133 $





000
SAUS42 KCHS 222157
MTRNBC
METAR KNBC 222156Z 17004KT 10SM FEW250 25/14 A2989 RMK AO2 SLP123
T02500139 $





000
SAUS42 KCHS 222057
MTRNBC
METAR KNBC 222056Z 15008G16KT 10SM CLR 24/14 A2990 RMK AO2 SLP126
T02390144 56017 $





000
SAUS42 KCHS 221957
MTRNBC
METAR KNBC 221956Z 15006KT 7SM FEW250 24/13 A2991 RMK AO2 WSHFT 1855
SLP129 T02440133 $





000
SAUS42 KCHS 221916
MTRNBC
SPECI KNBC 221915Z 23011G17KT 10SM CLR 27/07 A2992 RMK AO2 WSHFT
1855 T02670072 $





000
SAUS42 KCHS 221916
MTRNBC
SPECI KNBC 221915Z 23011G17KT 10SM CLR 27/07 A2992 RMK AO2 WSHFT
1855 T02670072 $





000
SAUS42 KCHS 221857
MTRNBC
METAR KNBC 221856Z 26012G16KT 10SM CLR 27/07 A2993 RMK AO2 SLP135
T02670067 $





000
SAUS42 KCHS 221857
MTRNBC
METAR KNBC 221856Z 26012G16KT 10SM CLR 27/07 A2993 RMK AO2 SLP135
T02670067 $





000
SAUS42 KCHS 221757
MTRNBC
METAR KNBC 221756Z 24011KT 10SM CLR 26/07 A2995 RMK AO2 SLP143
T02610067 10261 20144 58019 $





000
SAUS42 KCHS 221657
MTRNBC
METAR KNBC 221656Z 30007G15KT 10SM CLR 25/06 A2997 RMK AO2 SLP150
T02500056 $





000
SAUS42 KCHS 221558
MTRNBC
METAR KNBC 221556Z 30010G14KT 10SM CLR 24/05 A3000 RMK AO2 SLP159
T02390050 $





000
SAUS42 KCHS 221457
MTRNBC
METAR KNBC 221456Z 31006KT 10SM CLR 22/05 A3001 RMK AO2 SLP162
T02220050 53002 $





000
SAUS42 KCHS 221357
MTRNBC
METAR KNBC 221356Z 34005KT 10SM CLR 21/07 A3001 RMK AO2 SLP162
T02060067 $





000
SAUS42 KCHS 221357
MTRNBC
METAR KNBC 221356Z 34005KT 10SM CLR 21/07 A3001 RMK AO2 SLP162
T02060067 $





000
SAUS42 KCHS 221258
MTRNBC
METAR KNBC 221256Z VRB04KT 10SM CLR 18/08 A3000 RMK AO2 SLP158
T01830078 $





000
SAUS42 KCHS 221258
MTRNBC
METAR KNBC 221256Z VRB04KT 10SM CLR 18/08 A3000 RMK AO2 SLP158
T01830078 $





    US Dept of Commerce
    National Oceanic and Atmospheric Administration
    National Weather Service
    1325 East West Highway
    Silver Spring, MD 20910
    Page Author: NWS Internet Services Team
Disclaimer
Information Quality
Credits
Glossary
Privacy Policy
Freedom of Information Act (FOIA)
About Us
Career Opportunities